VISIB

Not for real navigation. The accuracy of this data is not assured See disclaimer for more information



ICAO NAME COUNTRY WIND Kt GUST Kt VIS m TEMP/DEW C BARO METAR
EGOP Pembrey Sands United Kingdom 2 0 100 2/2 30.65 EGOP 190950Z 08002KT 0100 FG VV/// 02/02 Q1038 RED
SKBO Bogota / Eldorado Colombia 3 0 200 9/9 30.28 SKBO 191030Z 31003KT 0200 R13L/0500N R13R/0350N FG SCT015 09/09 A3028
KDFW DALLAS/FT. WORTH INTERNATIONAL TX United States 7 0 200 9/9 29.89 KDFW 190953Z 21007KT 0.125SM R17C/3500VP6000FT BR OVC002 09/09 A2989 RMK AO2 SFC VIS 3/4 SLP121 T008
KJAX JACKSONVILLE INTERNATIONAL FL United States 4 0 200 16/16 30.05 KJAX 190956Z 26004KT 0.125SM R08/1800V2200FT FG VV002 16/16 A3005 RMK AO2 TWR VIS 1/4 SLP175 T016101
SBUL Uberlandia Brazil 6 0 300 19/18 30.06 SBUL 190944Z 09006KT 0300 R04/P2000D R22/P2000D FG BKN001 SCT080 19/18 Q1018

Show more